createdAt,value
2022-08-05T00:00:46.706Z,0.00
2022-08-05T00:01:49.011Z,0.00
2022-08-05T00:02:39.186Z,0.00
2022-08-05T00:03:38.065Z,0.00
2022-08-05T00:04:38.080Z,0.00
2022-08-05T00:06:04.662Z,0.00
2022-08-05T00:06:39.074Z,0.00
2022-08-05T00:08:01.077Z,0.00
2022-08-05T00:08:39.061Z,0.00
2022-08-05T00:09:38.008Z,0.00
2022-08-05T00:10:39.028Z,0.00
2022-08-05T00:11:48.335Z,0.00
2022-08-05T00:12:55.800Z,0.00
2022-08-05T00:13:40.102Z,0.00
2022-08-05T00:14:37.943Z,0.00
2022-08-05T00:15:55.851Z,0.00
2022-08-05T00:16:52.870Z,0.00
2022-08-05T00:17:38.951Z,0.00
2022-08-05T00:18:38.110Z,0.00
2022-08-05T00:19:40.687Z,0.00
2022-08-05T00:20:38.916Z,0.00
2022-08-05T00:21:37.911Z,0.00
2022-08-05T00:22:37.894Z,0.00
2022-08-05T00:23:46.044Z,0.00
2022-08-05T00:24:42.483Z,0.00
2022-08-05T00:25:45.908Z,0.00
2022-08-05T00:26:38.844Z,0.00
2022-08-05T00:27:39.438Z,0.00
2022-08-05T00:28:37.790Z,0.00
2022-08-05T00:29:38.414Z,0.00
2022-08-05T00:30:37.768Z,0.00
2022-08-05T00:31:53.274Z,0.00
2022-08-05T00:32:38.757Z,0.00
2022-08-05T00:34:54.965Z,0.00
2022-08-05T00:34:55.195Z,0.00
2022-08-05T00:35:38.717Z,0.00
2022-08-05T00:37:10.544Z,0.00
2022-08-05T00:37:53.011Z,0.00
2022-08-05T00:38:38.677Z,0.00
2022-08-05T00:39:44.528Z,0.00
2022-08-05T00:40:38.678Z,0.00
2022-08-05T00:41:51.449Z,0.00
2022-08-05T00:42:38.654Z,0.00
2022-08-05T00:43:46.445Z,0.00
2022-08-05T00:44:38.627Z,0.00
2022-08-05T00:45:42.812Z,0.00
2022-08-05T00:46:43.640Z,0.00
2022-08-05T00:47:56.020Z,0.00
2022-08-05T00:48:50.989Z,0.00
2022-08-05T00:49:44.449Z,0.00
2022-08-05T00:50:38.551Z,0.00
2022-08-05T00:51:51.400Z,0.00
2022-08-05T00:52:39.146Z,0.00
2022-08-05T00:54:01.264Z,0.00
2022-08-05T00:54:38.510Z,0.00
2022-08-05T00:55:42.476Z,0.00
2022-08-05T00:56:38.525Z,0.00
2022-08-05T00:57:58.751Z,0.00
2022-08-05T00:58:38.485Z,0.00
2022-08-05T00:59:44.583Z,0.00
2022-08-05T01:00:38.546Z,0.00
2022-08-05T01:01:48.673Z,0.00
2022-08-05T01:02:38.439Z,0.00
2022-08-05T01:03:37.478Z,0.00
2022-08-05T01:04:37.423Z,0.00
2022-08-05T01:05:37.397Z,0.00
2022-08-05T01:06:37.375Z,0.00
2022-08-05T01:07:37.366Z,0.00
2022-08-05T01:08:42.737Z,0.00
2022-08-05T01:09:38.376Z,0.00
2022-08-05T01:10:37.371Z,0.00
2022-08-05T01:11:37.667Z,0.00
2022-08-05T01:12:37.317Z,0.00
2022-08-05T01:13:59.187Z,0.00
2022-08-05T01:14:38.301Z,0.00
2022-08-05T01:15:37.305Z,0.00
2022-08-05T01:16:38.271Z,0.00
2022-08-05T01:17:40.254Z,0.00
2022-08-05T01:18:38.302Z,0.00
2022-08-05T01:19:56.188Z,0.00
2022-08-05T01:20:38.236Z,0.00
2022-08-05T01:21:38.049Z,0.00
2022-08-05T01:22:37.231Z,0.00
2022-08-05T01:23:37.207Z,0.00
2022-08-05T01:24:37.212Z,0.00
2022-08-05T01:25:40.067Z,0.00
2022-08-05T01:26:37.171Z,0.00
2022-08-05T01:27:37.178Z,0.00
2022-08-05T01:28:39.214Z,0.00
2022-08-05T01:29:46.219Z,0.00
2022-08-05T01:30:50.626Z,0.00
2022-08-05T01:32:28.072Z,0.00
2022-08-05T01:33:28.071Z,0.00
2022-08-05T01:34:29.081Z,0.00
2022-08-05T01:35:52.238Z,0.00
2022-08-05T01:36:29.034Z,0.00
2022-08-05T01:37:28.392Z,0.00
2022-08-05T01:38:29.886Z,0.00
2022-08-05T01:39:46.196Z,0.00
2022-08-05T01:40:29.225Z,0.00
2022-08-05T01:41:27.973Z,0.00
2022-08-05T01:42:28.031Z,0.00
2022-08-05T01:43:27.943Z,0.00
2022-08-05T01:44:35.326Z,0.00
2022-08-05T01:45:28.923Z,0.00
2022-08-05T01:46:42.933Z,0.00
2022-08-05T01:47:38.855Z,0.00
2022-08-05T01:48:28.892Z,0.00
2022-08-05T01:49:27.871Z,0.00
2022-08-05T01:50:29.647Z,0.00
2022-08-05T01:51:30.047Z,0.00
2022-08-05T01:52:27.856Z,0.00
2022-08-05T01:53:55.187Z,0.00
2022-08-05T01:54:28.828Z,0.00
2022-08-05T01:55:27.806Z,0.00
2022-08-05T01:58:11.343Z,0.00
2022-08-05T01:58:11.650Z,0.00
2022-08-05T01:58:40.300Z,0.00
2022-08-05T01:59:28.779Z,0.00
2022-08-05T02:00:30.253Z,0.00
2022-08-05T02:01:27.771Z,0.00
2022-08-05T02:02:28.646Z,0.00
2022-08-05T02:03:31.645Z,0.00
2022-08-05T02:04:27.727Z,0.00
2022-08-05T02:05:28.641Z,0.00
2022-08-05T02:06:37.575Z,0.00
2022-08-05T02:07:30.464Z,0.00
2022-08-05T02:08:30.802Z,0.00
2022-08-05T02:09:28.167Z,0.00
2022-08-05T02:10:28.699Z,0.00
2022-08-05T02:11:33.606Z,0.00
2022-08-05T02:12:28.645Z,0.00
2022-08-05T02:13:27.617Z,0.00
2022-08-05T02:14:28.605Z,0.00
2022-08-05T02:15:31.161Z,0.00
2022-08-05T02:16:28.591Z,0.00
2022-08-05T02:18:28.383Z,0.00
2022-08-05T02:18:34.305Z,0.00
2022-08-05T02:19:28.563Z,0.00
2022-08-05T02:20:28.549Z,0.00
2022-08-05T02:21:27.544Z,0.00
2022-08-05T02:22:27.575Z,0.00
2022-08-05T02:23:27.518Z,0.00
2022-08-05T02:24:27.499Z,0.00
2022-08-05T02:25:27.505Z,0.00
2022-08-05T02:26:28.497Z,0.00
2022-08-05T02:27:30.116Z,0.00
2022-08-05T02:28:31.274Z,0.00
2022-08-05T02:29:59.871Z,0.00
2022-08-05T02:30:28.442Z,0.00
2022-08-05T02:31:28.357Z,0.00
2022-08-05T02:32:29.351Z,0.00
2022-08-05T02:33:36.064Z,0.00
2022-08-05T02:34:28.399Z,0.00
2022-08-05T02:35:28.021Z,0.00
2022-08-05T02:36:27.891Z,0.00
2022-08-05T02:37:27.385Z,0.00
2022-08-05T02:38:27.354Z,0.00
2022-08-05T02:39:28.411Z,0.00
2022-08-05T02:40:27.531Z,0.00
2022-08-05T02:41:28.982Z,0.00
2022-08-05T02:42:31.930Z,0.00
2022-08-05T02:43:28.297Z,0.00
2022-08-05T02:44:27.285Z,0.00
2022-08-05T02:45:28.530Z,0.00
2022-08-05T02:46:28.273Z,0.00
2022-08-05T02:48:06.860Z,0.00
2022-08-05T02:48:29.549Z,0.00
2022-08-05T02:49:27.244Z,0.00
2022-08-05T02:50:28.231Z,4.00
2022-08-05T02:51:48.451Z,4.00
2022-08-05T02:52:30.250Z,0.00
2022-08-05T02:53:27.223Z,0.00
2022-08-05T02:54:34.463Z,0.00
2022-08-05T02:55:54.399Z,4.00
2022-08-05T02:56:28.166Z,0.00
2022-08-05T02:58:10.567Z,4.00
2022-08-05T02:58:28.945Z,4.00
2022-08-05T02:59:27.826Z,4.00
2022-08-05T03:00:27.131Z,8.00
2022-08-05T03:01:27.320Z,4.00
2022-08-05T03:02:27.414Z,4.00
2022-08-05T03:03:27.094Z,4.00
2022-08-05T03:04:28.071Z,8.00
2022-08-05T03:06:53.881Z,8.00
2022-08-05T03:06:56.887Z,8.00
2022-08-05T03:08:00.669Z,12.00
2022-08-05T03:08:29.726Z,12.00
2022-08-05T03:09:37.618Z,16.00
2022-08-05T03:10:28.009Z,20.00
2022-08-05T03:11:55.096Z,20.00
2022-08-05T03:12:27.996Z,24.00
2022-08-05T03:13:27.674Z,28.00
2022-08-05T03:14:27.991Z,28.00
2022-08-05T03:15:26.963Z,36.00
2022-08-05T03:16:26.953Z,40.00
2022-08-05T03:17:26.972Z,44.00
2022-08-05T03:18:30.115Z,52.00
2022-08-05T03:19:34.231Z,56.00
2022-08-05T03:20:27.922Z,60.00
2022-08-05T03:21:28.759Z,72.00
2022-08-05T03:22:32.182Z,80.00
2022-08-05T03:23:27.881Z,96.00
2022-08-05T03:24:30.063Z,108.00
2022-08-05T03:25:33.586Z,116.00
2022-08-05T03:26:31.095Z,136.00
2022-08-05T03:27:39.213Z,148.00
2022-08-05T03:28:27.830Z,168.00
2022-08-05T03:29:45.424Z,184.00
2022-08-05T03:30:28.672Z,200.00
2022-08-05T03:31:55.740Z,216.00
2022-08-05T03:32:31.090Z,232.00
2022-08-05T03:33:42.217Z,248.00
2022-08-05T03:34:27.752Z,260.00
2022-08-05T03:35:26.745Z,272.00
2022-08-05T03:36:30.368Z,284.00
2022-08-05T03:37:26.976Z,304.00
2022-08-05T03:38:33.356Z,324.00
2022-08-05T03:39:27.974Z,348.00
2022-08-05T03:40:32.012Z,372.00
2022-08-05T03:41:33.278Z,400.00
2022-08-05T03:42:28.920Z,424.00
2022-08-05T03:44:09.122Z,452.00
2022-08-05T03:44:28.983Z,484.00
2022-08-05T03:45:26.640Z,528.00
2022-08-05T03:46:29.592Z,560.00
2022-08-05T03:47:30.545Z,584.00
2022-08-05T03:48:27.608Z,604.00
2022-08-05T03:49:31.109Z,640.00
2022-08-05T03:50:27.579Z,668.00
2022-08-05T03:52:37.211Z,732.00
2022-08-05T03:52:37.482Z,700.00
2022-08-05T03:55:52.963Z,760.00
2022-08-05T03:55:53.614Z,792.00
2022-08-05T03:56:05.809Z,836.00
2022-08-05T03:56:33.078Z,880.00
2022-08-05T03:57:41.110Z,944.00
2022-08-05T03:58:29.143Z,1028.00
2022-08-05T03:59:26.492Z,1112.00
2022-08-05T04:00:26.476Z,1200.00
2022-08-05T04:01:26.503Z,1300.00
2022-08-05T04:02:38.310Z,1416.00
2022-08-05T04:03:28.509Z,1536.00
2022-08-05T04:04:26.627Z,1640.00
2022-08-05T04:05:27.996Z,1692.00
2022-08-05T04:06:27.422Z,1716.00
2022-08-05T04:07:26.397Z,1772.00
2022-08-05T04:08:34.677Z,1832.00
2022-08-05T04:09:27.390Z,1900.00
2022-08-05T04:10:27.768Z,1964.00
2022-08-05T04:11:47.570Z,2032.00
2022-08-05T04:12:27.354Z,2084.00
2022-08-05T04:13:26.351Z,2156.00
2022-08-05T04:14:30.233Z,2212.00
2022-08-05T04:15:26.310Z,2260.00
2022-08-05T04:16:32.407Z,2332.00
2022-08-05T04:17:36.437Z,2408.00
2022-08-05T04:18:27.308Z,2472.00
2022-08-05T04:19:26.271Z,2556.00
2022-08-05T04:20:26.258Z,2676.00
2022-08-05T04:22:08.506Z,2780.00
2022-08-05T04:22:27.236Z,2864.00
2022-08-05T04:24:04.695Z,2936.00
2022-08-05T04:24:27.642Z,3024.00
2022-08-05T04:25:57.976Z,3136.00
2022-08-05T04:26:27.219Z,3324.00
2022-08-05T04:27:41.836Z,3560.00
2022-08-05T04:28:30.953Z,3812.00
2022-08-05T04:29:27.173Z,4092.00
2022-08-05T04:30:26.369Z,4324.00
2022-08-05T04:31:27.715Z,4508.00
2022-08-05T04:32:30.854Z,4640.00
2022-08-05T04:33:54.774Z,4728.00
2022-08-05T04:34:32.284Z,4720.00
2022-08-05T04:35:27.102Z,4716.00
2022-08-05T04:36:46.121Z,4704.00
2022-08-05T04:38:02.089Z,4676.00
2022-08-05T04:38:39.796Z,4532.00
2022-08-05T04:39:27.563Z,4272.00
2022-08-05T04:40:26.043Z,4060.00
2022-08-05T04:41:37.100Z,3996.00
2022-08-05T04:42:27.029Z,4028.00
2022-08-05T04:43:26.100Z,4312.00
2022-08-05T04:44:30.266Z,4388.00
2022-08-05T04:45:47.877Z,4356.00
2022-08-05T04:46:27.913Z,4280.00
2022-08-05T04:47:26.337Z,4156.00
2022-08-05T04:48:27.964Z,4076.00
2022-08-05T04:49:39.028Z,4084.00
2022-08-05T04:50:34.453Z,4244.00
2022-08-05T04:51:30.639Z,4520.00
2022-08-05T04:52:27.395Z,4708.00
2022-08-05T04:53:25.905Z,4616.00
2022-08-05T04:54:25.905Z,4116.00
2022-08-05T04:56:05.091Z,4020.00
2022-08-05T04:56:34.693Z,4240.00
2022-08-05T04:57:29.010Z,4488.00
2022-08-05T04:58:25.858Z,4436.00
2022-08-05T04:59:38.443Z,4296.00
2022-08-05T05:00:26.857Z,4240.00
2022-08-05T05:01:33.470Z,4372.00
2022-08-05T05:02:36.282Z,4264.00
2022-08-05T05:03:26.807Z,4284.00
2022-08-05T05:04:26.816Z,4504.00
2022-08-05T05:05:28.856Z,4764.00
2022-08-05T05:06:40.280Z,4880.00
2022-08-05T05:07:29.691Z,4912.00
2022-08-05T05:08:30.094Z,4976.00
2022-08-05T05:09:25.736Z,5128.00
2022-08-05T05:10:25.742Z,5284.00
2022-08-05T05:11:52.829Z,5348.00
2022-08-05T05:12:27.442Z,5324.00
2022-08-05T05:13:25.695Z,5196.00
2022-08-05T05:14:28.080Z,5064.00
2022-08-05T05:15:56.253Z,4912.00
2022-08-05T05:16:30.256Z,4760.00
2022-08-05T05:17:57.101Z,4708.00
2022-08-05T05:18:28.378Z,4884.00
2022-08-05T05:19:26.639Z,5044.00
2022-08-05T05:20:28.420Z,5340.00
2022-08-05T05:21:27.203Z,5384.00
2022-08-05T05:22:26.022Z,5292.00
2022-08-05T05:23:25.588Z,4308.00
2022-08-05T05:24:56.442Z,3592.00
2022-08-05T05:25:32.590Z,3260.00
2022-08-05T05:26:28.786Z,3060.00
2022-08-05T05:27:44.656Z,2900.00
2022-08-05T05:28:26.536Z,2700.00
2022-08-05T05:29:25.538Z,2432.00
2022-08-05T05:30:30.901Z,2156.00
2022-08-05T05:31:26.506Z,1900.00
2022-08-05T05:32:25.514Z,1748.00
2022-08-05T05:33:25.483Z,1700.00
2022-08-05T05:34:26.975Z,1772.00
2022-08-05T05:35:25.476Z,1940.00
2022-08-05T05:36:25.459Z,2160.00
2022-08-05T05:37:37.311Z,2396.00
2022-08-05T05:38:27.447Z,2780.00
2022-08-05T05:39:25.461Z,3348.00
2022-08-05T05:40:26.409Z,3692.00
2022-08-05T05:41:25.398Z,3868.00
2022-08-05T05:42:26.405Z,4048.00
2022-08-05T05:43:54.793Z,4192.00
2022-08-05T05:44:35.761Z,4484.00
2022-08-05T05:45:26.361Z,4780.00
2022-08-05T05:46:25.349Z,5120.00
2022-08-05T05:47:30.333Z,5416.00
2022-08-05T05:48:27.723Z,5600.00
2022-08-05T05:49:25.313Z,5724.00
2022-08-05T05:50:25.743Z,5576.00
2022-08-05T05:51:25.530Z,5460.00
2022-08-05T05:52:28.587Z,5460.00
2022-08-05T05:53:26.267Z,5648.00
2022-08-05T05:54:49.687Z,6000.00
2022-08-05T05:55:51.656Z,6384.00
2022-08-05T05:56:33.347Z,6492.00
2022-08-05T05:57:26.442Z,6328.00
2022-08-05T05:58:32.079Z,6132.00
2022-08-05T05:59:28.636Z,5920.00
2022-08-05T06:00:31.398Z,5796.00
2022-08-05T06:01:29.272Z,5584.00
2022-08-05T06:02:37.617Z,5236.00
2022-08-05T06:03:39.994Z,5360.00
2022-08-05T06:04:26.196Z,5708.00
2022-08-05T06:05:25.227Z,6116.00
2022-08-05T06:06:25.144Z,6476.00
2022-08-05T06:07:41.834Z,6676.00
2022-08-05T06:08:31.662Z,6828.00
2022-08-05T06:09:52.651Z,6576.00
2022-08-05T06:10:29.230Z,6156.00
2022-08-05T06:11:25.070Z,5808.00
2022-08-05T06:12:27.123Z,5376.00
2022-08-05T06:13:25.059Z,5380.00
2022-08-05T06:14:25.354Z,5428.00
2022-08-05T06:15:25.037Z,5364.00
2022-08-05T06:16:29.496Z,5512.00
2022-08-05T06:17:30.843Z,5792.00
2022-08-05T06:18:31.183Z,5984.00
2022-08-05T06:19:34.865Z,6048.00
2022-08-05T06:20:25.975Z,6428.00
2022-08-05T06:21:25.162Z,6932.00
2022-08-05T06:22:25.980Z,7444.00
2022-08-05T06:23:24.950Z,7860.00
2022-08-05T06:24:25.897Z,8324.00
2022-08-05T06:26:12.890Z,9128.00
2022-08-05T06:26:25.920Z,10080.00
2022-08-05T06:28:11.537Z,10948.00
2022-08-05T06:28:28.520Z,11576.00
2022-08-05T06:29:46.670Z,11812.00
2022-08-05T06:30:25.871Z,11936.00
2022-08-05T06:31:30.521Z,12008.00
2022-08-05T06:32:29.166Z,11912.00
2022-08-05T06:34:04.618Z,11644.00
2022-08-05T06:34:27.725Z,11068.00
2022-08-05T06:36:07.720Z,10452.00
2022-08-05T06:36:26.147Z,9660.00
2022-08-05T06:37:56.182Z,8728.00
2022-08-05T06:38:36.708Z,7996.00
2022-08-05T06:39:26.837Z,7624.00
2022-08-05T06:40:28.087Z,7384.00
2022-08-05T06:41:25.748Z,7188.00
2022-08-05T06:42:25.346Z,7100.00
2022-08-05T06:43:57.268Z,7060.00
2022-08-05T06:44:25.978Z,6936.00
2022-08-05T06:45:45.122Z,6672.00
2022-08-05T06:46:29.667Z,6464.00
2022-08-05T06:48:11.758Z,6312.00
2022-08-05T06:48:52.573Z,6312.00
2022-08-05T06:50:00.686Z,6372.00
2022-08-05T06:50:25.652Z,6256.00
2022-08-05T06:51:29.905Z,5996.00
2022-08-05T06:52:37.120Z,5640.00
2022-08-05T06:53:28.195Z,5156.00
2022-08-05T06:54:25.815Z,4640.00
2022-08-05T06:55:24.608Z,4180.00
2022-08-05T06:56:26.442Z,4004.00
2022-08-05T06:58:02.522Z,4028.00
2022-08-05T06:58:35.082Z,4064.00
2022-08-05T06:59:25.585Z,4224.00
2022-08-05T07:00:25.037Z,4432.00
2022-08-05T07:01:32.075Z,4632.00
2022-08-05T07:02:25.567Z,4964.00
2022-08-05T07:03:32.325Z,5092.00
2022-08-05T07:04:25.519Z,4912.00
2022-08-05T07:05:37.061Z,4992.00
2022-08-05T07:06:27.661Z,4756.00
2022-08-05T07:07:35.551Z,4216.00
2022-08-05T07:08:25.463Z,3768.00
2022-08-05T07:09:24.987Z,3272.00
2022-08-05T07:10:32.222Z,2920.00
2022-08-05T07:11:25.730Z,2648.00
2022-08-05T07:12:25.315Z,2380.00
2022-08-05T07:13:56.888Z,2204.00
2022-08-05T07:14:29.368Z,2168.00
2022-08-05T07:15:34.420Z,2268.00
2022-08-05T07:17:57.285Z,2508.00
2022-08-05T07:18:02.124Z,2564.00
2022-08-05T07:18:29.204Z,2508.00
2022-08-05T07:20:05.823Z,2540.00
2022-08-05T07:20:34.062Z,2600.00
2022-08-05T07:21:25.946Z,2576.00
2022-08-05T07:22:28.631Z,2672.00
2022-08-05T07:23:26.559Z,3136.00
2022-08-05T07:24:24.321Z,3212.00
2022-08-05T07:25:55.060Z,2860.00
2022-08-05T07:26:25.728Z,2536.00
2022-08-05T07:27:27.681Z,2248.00
2022-08-05T07:28:25.380Z,1988.00
2022-08-05T07:29:25.520Z,1872.00
2022-08-05T07:30:31.044Z,1908.00
2022-08-05T07:31:40.870Z,2020.00
2022-08-05T07:32:26.215Z,2420.00
2022-08-05T07:33:35.045Z,2740.00
2022-08-05T07:34:28.588Z,3020.00
2022-08-05T07:36:04.333Z,3092.00
2022-08-05T07:36:25.156Z,3432.00
2022-08-05T07:37:24.514Z,3728.00
2022-08-05T07:38:32.371Z,3868.00
2022-08-05T07:40:04.545Z,3924.00
2022-08-05T07:40:31.419Z,3980.00
2022-08-05T07:42:08.761Z,4112.00
2022-08-05T07:42:33.843Z,4232.00
2022-08-05T07:43:25.084Z,4100.00
2022-08-05T07:44:24.175Z,4000.00
2022-08-05T07:45:31.304Z,3980.00
2022-08-05T07:46:26.179Z,4068.00
2022-08-05T07:47:25.874Z,4000.00
2022-08-05T07:49:00.503Z,3800.00
2022-08-05T07:49:25.031Z,3624.00
2022-08-05T07:50:28.783Z,3608.00
2022-08-05T07:51:36.699Z,3924.00
2022-08-05T07:52:26.350Z,4824.00
2022-08-05T07:53:23.971Z,5488.00
2022-08-05T07:54:26.651Z,5688.00
2022-08-05T07:55:44.360Z,5980.00
2022-08-05T07:56:59.950Z,6524.00
2022-08-05T07:57:50.524Z,6984.00
2022-08-05T07:58:57.786Z,6660.00
2022-08-05T07:59:38.808Z,5820.00
2022-08-05T08:00:24.968Z,5468.00
2022-08-05T08:01:26.476Z,6152.00
2022-08-05T08:02:31.401Z,7604.00
2022-08-05T08:03:44.423Z,8408.00
2022-08-05T08:04:37.537Z,8344.00
2022-08-05T08:07:25.069Z,6632.00
2022-08-05T08:08:24.155Z,5992.00
2022-08-05T08:09:26.648Z,5592.00
2022-08-05T08:10:24.808Z,5236.00
2022-08-05T08:11:27.789Z,5008.00
2022-08-05T08:12:36.848Z,5032.00
2022-08-05T08:13:28.979Z,5504.00
2022-08-05T08:14:26.275Z,6532.00
2022-08-05T08:15:37.076Z,7200.00
2022-08-05T08:16:34.570Z,7488.00
2022-08-05T08:17:28.657Z,7928.00
2022-08-05T08:18:26.240Z,8604.00
2022-08-05T08:20:22.989Z,9576.00
2022-08-05T08:21:01.011Z,11756.00
2022-08-05T08:21:27.302Z,13836.00
2022-08-05T08:22:27.888Z,14588.00
2022-08-05T08:24:02.054Z,13784.00
2022-08-05T08:24:51.093Z,12164.00
2022-08-05T08:25:59.831Z,10444.00
2022-08-05T08:26:29.805Z,9392.00
2022-08-05T08:27:40.235Z,9120.00
2022-08-05T08:28:35.557Z,8996.00
2022-08-05T08:30:04.073Z,8912.00
2022-08-05T08:30:32.568Z,8968.00
2022-08-05T08:31:27.167Z,9636.00
2022-08-05T08:32:27.886Z,10024.00
2022-08-05T08:33:23.553Z,10412.00
2022-08-05T08:34:29.856Z,10144.00
2022-08-05T08:35:26.544Z,9624.00
2022-08-05T08:36:39.284Z,9252.00
2022-08-05T08:37:27.991Z,8860.00
2022-08-05T08:38:35.262Z,8004.00
2022-08-05T08:39:24.508Z,6696.00
2022-08-05T08:40:23.479Z,5748.00
2022-08-05T08:41:25.912Z,5136.00
2022-08-05T08:42:46.941Z,4564.00
2022-08-05T08:45:18.095Z,4184.00
2022-08-05T08:45:18.598Z,4192.00
2022-08-05T08:45:27.268Z,4068.00
2022-08-05T08:46:24.457Z,3864.00
2022-08-05T08:48:06.328Z,3780.00
2022-08-05T08:49:03.067Z,3788.00
2022-08-05T08:50:23.482Z,3980.00
2022-08-05T08:50:52.006Z,3980.00
2022-08-05T08:52:03.554Z,4112.00
2022-08-05T08:52:24.934Z,4384.00
2022-08-05T08:53:23.325Z,4704.00
2022-08-05T08:54:27.422Z,4964.00
2022-08-05T08:56:01.710Z,5416.00
2022-08-05T08:56:27.069Z,6244.00
2022-08-05T08:57:23.303Z,7400.00
2022-08-05T08:58:26.049Z,8520.00
2022-08-05T08:59:27.590Z,9996.00
2022-08-05T09:00:23.256Z,11496.00
2022-08-05T09:01:23.259Z,12332.00
2022-08-05T09:02:26.564Z,13156.00
2022-08-05T09:03:23.223Z,13388.00
2022-08-05T09:04:23.205Z,12964.00
2022-08-05T09:05:39.018Z,11792.00
2022-08-05T09:06:29.614Z,10676.00
2022-08-05T09:07:28.800Z,9884.00
2022-08-05T09:08:26.605Z,8636.00
2022-08-05T09:09:23.171Z,7300.00
2022-08-05T09:10:27.730Z,6452.00
2022-08-05T09:11:51.111Z,6024.00
2022-08-05T09:12:27.320Z,5796.00
2022-08-05T09:13:23.623Z,5704.00
2022-08-05T09:14:59.201Z,5656.00
2022-08-05T09:15:24.096Z,5380.00
2022-08-05T09:16:23.087Z,5080.00
2022-08-05T09:17:42.238Z,4616.00
2022-08-05T09:18:24.063Z,4088.00
2022-08-05T09:19:27.688Z,3600.00
2022-08-05T09:20:37.318Z,3220.00
2022-08-05T09:22:22.326Z,2912.00
2022-08-05T09:22:31.072Z,2680.00
2022-08-05T09:23:27.267Z,2532.00
2022-08-05T09:24:24.225Z,2592.00
2022-08-05T09:25:24.350Z,3148.00
2022-08-05T09:26:23.977Z,4064.00
2022-08-05T09:28:04.272Z,4384.00
2022-08-05T09:28:23.956Z,4596.00
2022-08-05T09:29:31.002Z,4172.00
2022-08-05T09:30:23.944Z,3824.00
2022-08-05T09:32:40.632Z,3672.00
2022-08-05T09:32:41.581Z,3596.00
2022-08-05T09:33:23.921Z,3456.00
2022-08-05T09:34:26.055Z,3524.00
2022-08-05T09:35:26.554Z,3524.00
2022-08-05T09:36:27.796Z,3460.00
2022-08-05T09:38:16.773Z,3312.00
2022-08-05T09:38:29.539Z,3120.00
2022-08-05T09:39:23.888Z,3064.00
2022-08-05T09:40:22.962Z,2960.00
2022-08-05T09:41:22.822Z,2876.00
2022-08-05T09:42:23.931Z,2948.00
2022-08-05T09:43:23.796Z,3268.00
2022-08-05T09:44:22.784Z,4112.00
2022-08-05T09:46:06.729Z,5308.00
2022-08-05T09:46:27.613Z,6652.00
2022-08-05T09:47:22.751Z,7008.00
2022-08-05T09:48:22.734Z,6644.00
2022-08-05T09:49:22.727Z,6024.00
2022-08-05T09:50:43.561Z,5704.00
2022-08-05T09:51:23.709Z,5336.00
2022-08-05T09:52:23.034Z,5172.00
2022-08-05T09:53:53.989Z,5264.00
2022-08-05T09:54:29.365Z,5744.00
2022-08-05T09:55:57.494Z,6664.00
2022-08-05T09:56:23.655Z,7888.00
2022-08-05T09:57:23.481Z,9296.00
2022-08-05T09:58:22.627Z,11828.00
2022-08-05T09:59:22.624Z,14828.00
2022-08-05T10:00:22.611Z,16960.00
2022-08-05T10:01:32.372Z,17664.00
2022-08-05T10:02:23.920Z,17248.00
2022-08-05T10:03:22.600Z,16204.00
2022-08-05T10:04:29.321Z,15108.00
2022-08-05T10:05:23.556Z,14336.00
2022-08-05T10:06:22.551Z,13584.00
2022-08-05T10:07:50.525Z,13336.00
2022-08-05T10:08:35.913Z,14108.00
2022-08-05T10:09:27.350Z,14768.00
2022-08-05T10:10:28.063Z,15588.00
2022-08-05T10:11:22.797Z,15744.00
2022-08-05T10:12:31.690Z,15300.00
2022-08-05T10:13:23.464Z,14792.00
2022-08-05T10:14:22.456Z,13700.00
2022-08-05T10:15:22.450Z,12520.00
2022-08-05T10:16:22.434Z,12456.00
2022-08-05T10:17:37.667Z,12764.00
2022-08-05T10:18:23.415Z,13060.00
2022-08-05T10:19:23.804Z,13636.00
2022-08-05T10:20:23.398Z,14024.00
2022-08-05T10:21:22.401Z,14000.00
2022-08-05T10:22:29.795Z,13992.00
2022-08-05T10:23:55.325Z,13824.00
2022-08-05T10:24:26.939Z,13044.00
2022-08-05T10:25:22.339Z,11936.00
2022-08-05T10:26:24.211Z,11544.00
2022-08-05T10:27:26.346Z,11516.00
2022-08-05T10:28:30.292Z,11032.00
2022-08-05T10:29:24.220Z,10056.00
2022-08-05T10:32:47.741Z,10520.00
2022-08-05T10:32:52.647Z,10788.00
2022-08-05T10:33:01.149Z,9308.00
2022-08-05T10:33:23.295Z,8428.00
2022-08-05T10:34:25.587Z,7624.00
2022-08-05T10:35:23.267Z,7092.00
2022-08-05T10:36:25.793Z,6648.00
2022-08-05T10:37:22.216Z,6396.00
2022-08-05T10:38:22.207Z,6236.00
2022-08-05T10:39:24.185Z,6172.00
2022-08-05T10:40:27.728Z,6092.00
2022-08-05T10:41:23.282Z,5936.00
2022-08-05T10:42:22.732Z,5840.00
2022-08-05T10:43:23.289Z,5820.00
2022-08-05T10:44:23.154Z,5880.00
2022-08-05T10:45:39.750Z,5880.00
2022-08-05T10:46:23.725Z,5960.00
2022-08-05T10:47:26.478Z,6156.00
2022-08-05T10:48:30.263Z,6352.00
2022-08-05T10:49:26.795Z,6228.00
2022-08-05T10:50:36.536Z,6004.00
2022-08-05T10:51:29.341Z,6160.00
2022-08-05T10:52:23.414Z,6080.00
2022-08-05T10:53:22.049Z,6124.00
2022-08-05T10:54:23.023Z,6172.00
2022-08-05T10:55:23.032Z,6304.00
2022-08-05T10:56:26.034Z,6296.00
2022-08-05T10:57:22.022Z,5548.00
2022-08-05T10:58:22.015Z,5488.00
2022-08-05T11:00:02.996Z,5196.00
2022-08-05T11:00:23.189Z,5212.00
2022-08-05T11:01:28.249Z,5212.00
2022-08-05T11:02:37.490Z,5596.00
2022-08-05T11:03:26.636Z,6376.00
2022-08-05T11:04:21.954Z,6836.00
2022-08-05T11:05:25.232Z,6964.00
2022-08-05T11:06:22.921Z,6940.00
2022-08-05T11:07:32.761Z,6736.00
2022-08-05T11:08:37.152Z,6488.00
2022-08-05T11:09:24.408Z,6336.00
2022-08-05T11:10:22.891Z,6212.00
2022-08-05T11:11:21.864Z,6144.00
2022-08-05T11:12:22.044Z,6084.00
2022-08-05T11:13:21.843Z,5988.00
2022-08-05T11:14:37.095Z,5932.00
2022-08-05T11:15:22.814Z,5916.00
2022-08-05T11:16:21.823Z,5936.00
2022-08-05T11:17:57.083Z,5956.00
2022-08-05T11:18:22.793Z,6016.00
2022-08-05T11:20:10.225Z,6052.00
2022-08-05T11:20:22.765Z,6056.00
2022-08-05T11:21:21.752Z,6116.00
2022-08-05T11:22:21.767Z,6140.00
2022-08-05T11:23:21.738Z,6156.00
2022-08-05T11:24:30.815Z,6236.00
2022-08-05T11:26:05.499Z,6200.00
2022-08-05T11:26:29.267Z,6180.00
2022-08-05T11:27:22.954Z,6652.00
2022-08-05T11:28:21.677Z,7524.00
2022-08-05T11:29:21.668Z,8436.00
2022-08-05T11:30:21.663Z,9520.00
2022-08-05T11:31:54.420Z,11076.00
2022-08-05T11:32:22.653Z,12068.00
2022-08-05T11:33:21.631Z,12304.00
2022-08-05T11:34:22.798Z,13052.00
2022-08-05T11:35:21.607Z,13500.00
2022-08-05T11:36:34.532Z,15084.00
2022-08-05T11:38:28.420Z,17600.00
2022-08-05T11:38:28.838Z,15888.00
2022-08-05T11:39:22.695Z,17440.00
2022-08-05T11:40:21.589Z,15672.00
2022-08-05T11:41:58.034Z,13340.00
2022-08-05T11:42:22.527Z,10892.00
2022-08-05T11:44:00.713Z,10036.00
2022-08-05T11:44:40.336Z,9740.00
2022-08-05T11:46:15.369Z,11036.00
2022-08-05T11:46:32.147Z,13000.00
2022-08-05T11:47:48.283Z,13596.00
2022-08-05T11:48:22.475Z,13508.00
2022-08-05T11:49:21.461Z,12560.00
2022-08-05T11:50:21.450Z,10148.00
2022-08-05T11:51:44.469Z,7820.00
2022-08-05T11:52:22.945Z,6844.00
2022-08-05T11:53:22.437Z,6660.00
2022-08-05T11:54:21.423Z,6952.00
2022-08-05T11:55:21.570Z,7260.00
2022-08-05T11:56:22.404Z,8192.00
2022-08-05T11:57:25.895Z,10988.00
2022-08-05T11:58:21.636Z,13512.00
2022-08-05T11:59:21.469Z,15036.00
2022-08-05T12:00:21.363Z,16544.00
2022-08-05T12:01:21.344Z,17600.00
2022-08-05T12:02:24.306Z,18816.00
2022-08-05T12:03:29.650Z,18592.00
2022-08-05T12:04:22.380Z,18048.00
2022-08-05T12:05:23.918Z,17216.00
2022-08-05T12:06:22.299Z,17344.00
2022-08-05T12:08:07.486Z,17632.00
2022-08-05T12:08:22.259Z,17312.00
2022-08-05T12:09:21.261Z,15180.00
2022-08-05T12:10:22.300Z,13780.00
2022-08-05T12:11:21.227Z,12500.00
2022-08-05T12:12:21.235Z,12092.00
2022-08-05T12:13:47.730Z,11912.00
2022-08-05T12:14:22.199Z,11476.00
2022-08-05T12:15:38.041Z,11564.00
2022-08-05T12:16:27.010Z,11776.00
2022-08-05T12:18:02.605Z,12132.00
2022-08-05T12:18:24.365Z,12028.00
2022-08-05T12:20:17.273Z,12108.00
2022-08-05T12:20:28.869Z,11916.00
2022-08-05T12:21:23.574Z,12312.00
2022-08-05T12:22:21.125Z,12208.00
2022-08-05T12:23:21.124Z,11716.00
2022-08-05T12:24:21.105Z,11728.00